sensor_id;sensor_type;location;lat;lon;timestamp;P1;durP1;ratioP1;P2;durP2;ratioP2
48550;SDS011;34397;51.176;6.738;2024-02-15T00:01:43;10.13;;;3.05;;
48550;SDS011;34397;51.176;6.738;2024-02-15T00:04:14;9.55;;;3.25;;
48550;SDS011;34397;51.176;6.738;2024-02-15T00:09:18;7.88;;;3.00;;
48550;SDS011;34397;51.176;6.738;2024-02-15T00:11:50;9.25;;;3.08;;
48550;SDS011;34397;51.176;6.738;2024-02-15T00:14:23;9.07;;;3.20;;
48550;SDS011;34397;51.176;6.738;2024-02-15T00:16:57;7.72;;;3.00;;
48550;SDS011;34397;51.176;6.738;2024-02-15T00:19:29;8.20;;;3.13;;
48550;SDS011;34397;51.176;6.738;2024-02-15T00:22:01;6.95;;;3.05;;
48550;SDS011;34397;51.176;6.738;2024-02-15T00:24:36;7.80;;;3.10;;
48550;SDS011;34397;51.176;6.738;2024-02-15T00:27:08;8.93;;;3.10;;
48550;SDS011;34397;51.176;6.738;2024-02-15T00:29:41;8.75;;;3.10;;
48550;SDS011;34397;51.176;6.738;2024-02-15T00:32:14;11.30;;;2.83;;
48550;SDS011;34397;51.176;6.738;2024-02-15T00:34:46;8.13;;;3.03;;
48550;SDS011;34397;51.176;6.738;2024-02-15T00:37:18;9.50;;;3.08;;
48550;SDS011;34397;51.176;6.738;2024-02-15T00:39:50;5.97;;;2.78;;
48550;SDS011;34397;51.176;6.738;2024-02-15T00:42:22;8.45;;;3.28;;
48550;SDS011;34397;51.176;6.738;2024-02-15T00:44:53;8.35;;;3.25;;
48550;SDS011;34397;51.176;6.738;2024-02-15T00:47:27;8.75;;;3.17;;
48550;SDS011;34397;51.176;6.738;2024-02-15T00:49:59;10.40;;;2.92;;
48550;SDS011;34397;51.176;6.738;2024-02-15T00:52:31;6.80;;;2.38;;
48550;SDS011;34397;51.176;6.738;2024-02-15T00:55:03;10.93;;;3.10;;
48550;SDS011;34397;51.176;6.738;2024-02-15T00:57:35;9.95;;;3.72;;
48550;SDS011;34397;51.176;6.738;2024-02-15T01:00:08;8.10;;;2.45;;
48550;SDS011;34397;51.176;6.738;2024-02-15T01:02:42;6.90;;;3.00;;
48550;SDS011;34397;51.176;6.738;2024-02-15T01:05:14;6.63;;;2.30;;
48550;SDS011;34397;51.176;6.738;2024-02-15T01:07:46;7.07;;;2.38;;
48550;SDS011;34397;51.176;6.738;2024-02-15T01:10:19;8.63;;;2.60;;
48550;SDS011;34397;51.176;6.738;2024-02-15T01:12:50;11.68;;;2.70;;
48550;SDS011;34397;51.176;6.738;2024-02-15T01:15:22;6.97;;;2.58;;
48550;SDS011;34397;51.176;6.738;2024-02-15T01:17:55;5.00;;;2.28;;
48550;SDS011;34397;51.176;6.738;2024-02-15T01:20:27;8.48;;;2.78;;
48550;SDS011;34397;51.176;6.738;2024-02-15T01:22:59;8.75;;;3.15;;
48550;SDS011;34397;51.176;6.738;2024-02-15T01:25:31;6.60;;;2.35;;
48550;SDS011;34397;51.176;6.738;2024-02-15T01:28:03;6.07;;;2.50;;
48550;SDS011;34397;51.176;6.738;2024-02-15T01:30:35;5.75;;;2.28;;
48550;SDS011;34397;51.176;6.738;2024-02-15T01:33:09;7.15;;;2.08;;
48550;SDS011;34397;51.176;6.738;2024-02-15T01:35:41;5.80;;;2.40;;
48550;SDS011;34397;51.176;6.738;2024-02-15T01:38:13;8.38;;;2.05;;
48550;SDS011;34397;51.176;6.738;2024-02-15T01:40:46;6.15;;;2.30;;
48550;SDS011;34397;51.176;6.738;2024-02-15T01:43:18;8.15;;;2.35;;
48550;SDS011;34397;51.176;6.738;2024-02-15T01:45:50;8.18;;;2.30;;
48550;SDS011;34397;51.176;6.738;2024-02-15T01:48:23;7.47;;;2.20;;
48550;SDS011;34397;51.176;6.738;2024-02-15T01:50:55;8.00;;;2.08;;
48550;SDS011;34397;51.176;6.738;2024-02-15T01:53:28;5.75;;;2.35;;
48550;SDS011;34397;51.176;6.738;2024-02-15T01:56:00;9.30;;;2.40;;
48550;SDS011;34397;51.176;6.738;2024-02-15T01:58:33;5.13;;;2.33;;
48550;SDS011;34397;51.176;6.738;2024-02-15T02:01:06;7.53;;;2.00;;
48550;SDS011;34397;51.176;6.738;2024-02-15T02:03:40;7.38;;;2.40;;
48550;SDS011;34397;51.176;6.738;2024-02-15T02:06:11;4.70;;;2.10;;
48550;SDS011;34397;51.176;6.738;2024-02-15T02:08:44;8.32;;;2.10;;
48550;SDS011;34397;51.176;6.738;2024-02-15T02:11:16;7.65;;;2.42;;
48550;SDS011;34397;51.176;6.738;2024-02-15T02:13:48;8.18;;;2.45;;
48550;SDS011;34397;51.176;6.738;2024-02-15T02:16:25;5.70;;;2.20;;
48550;SDS011;34397;51.176;6.738;2024-02-15T02:18:59;5.65;;;1.92;;
48550;SDS011;34397;51.176;6.738;2024-02-15T02:21:30;7.03;;;2.50;;
48550;SDS011;34397;51.176;6.738;2024-02-15T02:24:07;6.03;;;2.03;;
48550;SDS011;34397;51.176;6.738;2024-02-15T02:26:45;5.75;;;1.80;;
48550;SDS011;34397;51.176;6.738;2024-02-15T02:29:17;12.70;;;2.40;;
48550;SDS011;34397;51.176;6.738;2024-02-15T02:31:50;5.40;;;1.92;;
48550;SDS011;34397;51.176;6.738;2024-02-15T02:34:22;6.20;;;2.03;;
48550;SDS011;34397;51.176;6.738;2024-02-15T02:36:54;5.03;;;2.28;;
48550;SDS011;34397;51.176;6.738;2024-02-15T02:39:26;5.82;;;1.95;;
48550;SDS011;34397;51.176;6.738;2024-02-15T02:42:02;8.27;;;2.40;;
48550;SDS011;34397;51.176;6.738;2024-02-15T02:44:35;5.43;;;2.10;;
48550;SDS011;34397;51.176;6.738;2024-02-15T02:47:06;5.60;;;1.70;;
48550;SDS011;34397;51.176;6.738;2024-02-15T02:49:38;8.35;;;2.13;;
48550;SDS011;34397;51.176;6.738;2024-02-15T02:52:10;5.93;;;1.98;;
48550;SDS011;34397;51.176;6.738;2024-02-15T02:54:42;7.38;;;2.15;;
48550;SDS011;34397;51.176;6.738;2024-02-15T02:57:15;3.70;;;1.95;;
48550;SDS011;34397;51.176;6.738;2024-02-15T02:59:48;8.30;;;2.60;;
48550;SDS011;34397;51.176;6.738;2024-02-15T03:02:20;8.00;;;2.40;;
48550;SDS011;34397;51.176;6.738;2024-02-15T03:04:52;6.40;;;1.90;;
48550;SDS011;34397;51.176;6.738;2024-02-15T03:07:24;7.85;;;2.40;;
48550;SDS011;34397;51.176;6.738;2024-02-15T03:09:56;7.75;;;2.42;;
48550;SDS011;34397;51.176;6.738;2024-02-15T03:12:29;7.68;;;2.30;;
48550;SDS011;34397;51.176;6.738;2024-02-15T03:15:02;9.35;;;2.53;;
48550;SDS011;34397;51.176;6.738;2024-02-15T03:17:34;5.28;;;2.53;;
48550;SDS011;34397;51.176;6.738;2024-02-15T03:22:42;4.63;;;2.08;;
48550;SDS011;34397;51.176;6.738;2024-02-15T03:25:13;6.90;;;2.10;;
48550;SDS011;34397;51.176;6.738;2024-02-15T03:27:47;5.00;;;2.10;;
48550;SDS011;34397;51.176;6.738;2024-02-15T03:30:18;4.25;;;1.98;;
48550;SDS011;34397;51.176;6.738;2024-02-15T03:32:51;3.10;;;1.50;;
48550;SDS011;34397;51.176;6.738;2024-02-15T03:35:24;4.95;;;1.60;;
48550;SDS011;34397;51.176;6.738;2024-02-15T03:37:58;4.28;;;1.70;;
48550;SDS011;34397;51.176;6.738;2024-02-15T03:40:30;3.47;;;1.70;;
48550;SDS011;34397;51.176;6.738;2024-02-15T03:43:04;3.42;;;1.50;;
48550;SDS011;34397;51.176;6.738;2024-02-15T03:45:36;2.60;;;1.15;;
48550;SDS011;34397;51.176;6.738;2024-02-15T03:48:08;2.55;;;1.45;;
48550;SDS011;34397;51.176;6.738;2024-02-15T03:50:40;4.28;;;1.63;;
48550;SDS011;34397;51.176;6.738;2024-02-15T03:53:12;3.75;;;1.40;;
48550;SDS011;34397;51.176;6.738;2024-02-15T03:55:44;2.40;;;1.33;;
48550;SDS011;34397;51.176;6.738;2024-02-15T03:58:17;3.15;;;1.58;;
48550;SDS011;34397;51.176;6.738;2024-02-15T04:00:49;2.35;;;1.17;;
48550;SDS011;34397;51.176;6.738;2024-02-15T04:03:21;1.50;;;1.30;;
48550;SDS011;34397;51.176;6.738;2024-02-15T04:05:53;2.15;;;1.35;;
48550;SDS011;34397;51.176;6.738;2024-02-15T04:08:24;2.50;;;1.20;;
48550;SDS011;34397;51.176;6.738;2024-02-15T04:10:56;5.22;;;1.70;;
48550;SDS011;34397;51.176;6.738;2024-02-15T04:13:29;2.33;;;1.25;;
48550;SDS011;34397;51.176;6.738;2024-02-15T04:16:02;3.70;;;1.58;;
48550;SDS011;34397;51.176;6.738;2024-02-15T04:18:34;2.83;;;1.40;;
48550;SDS011;34397;51.176;6.738;2024-02-15T04:21:07;2.72;;;1.33;;
48550;SDS011;34397;51.176;6.738;2024-02-15T04:23:40;3.95;;;1.50;;
48550;SDS011;34397;51.176;6.738;2024-02-15T04:28:45;5.38;;;2.78;;
48550;SDS011;34397;51.176;6.738;2024-02-15T04:31:18;4.55;;;1.88;;
48550;SDS011;34397;51.176;6.738;2024-02-15T04:33:56;4.20;;;2.50;;
48550;SDS011;34397;51.176;6.738;2024-02-15T04:36:29;4.28;;;2.20;;
48550;SDS011;34397;51.176;6.738;2024-02-15T04:39:04;4.57;;;2.25;;
48550;SDS011;34397;51.176;6.738;2024-02-15T04:41:36;4.47;;;2.38;;
48550;SDS011;34397;51.176;6.738;2024-02-15T04:44:10;5.30;;;2.28;;
48550;SDS011;34397;51.176;6.738;2024-02-15T04:46:42;4.32;;;2.35;;
48550;SDS011;34397;51.176;6.738;2024-02-15T04:49:15;4.57;;;2.35;;
48550;SDS011;34397;51.176;6.738;2024-02-15T04:51:47;5.57;;;2.17;;
48550;SDS011;34397;51.176;6.738;2024-02-15T04:54:19;4.43;;;2.30;;
48550;SDS011;34397;51.176;6.738;2024-02-15T04:59:26;5.70;;;2.60;;
48550;SDS011;34397;51.176;6.738;2024-02-15T05:01:59;5.68;;;2.22;;
48550;SDS011;34397;51.176;6.738;2024-02-15T05:04:31;3.83;;;2.20;;
48550;SDS011;34397;51.176;6.738;2024-02-15T05:07:06;3.78;;;2.38;;
48550;SDS011;34397;51.176;6.738;2024-02-15T05:09:38;6.13;;;2.70;;
48550;SDS011;34397;51.176;6.738;2024-02-15T05:12:10;3.10;;;2.00;;
48550;SDS011;34397;51.176;6.738;2024-02-15T05:14:54;4.32;;;2.00;;
48550;SDS011;34397;51.176;6.738;2024-02-15T05:17:26;3.47;;;1.98;;
48550;SDS011;34397;51.176;6.738;2024-02-15T05:19:59;4.20;;;1.95;;
48550;SDS011;34397;51.176;6.738;2024-02-15T05:22:39;5.05;;;1.77;;
48550;SDS011;34397;51.176;6.738;2024-02-15T05:25:13;3.47;;;1.98;;
48550;SDS011;34397;51.176;6.738;2024-02-15T05:27:45;5.95;;;2.15;;
48550;SDS011;34397;51.176;6.738;2024-02-15T05:30:19;5.00;;;2.22;;
48550;SDS011;34397;51.176;6.738;2024-02-15T05:32:51;4.22;;;2.10;;
48550;SDS011;34397;51.176;6.738;2024-02-15T05:35:23;3.85;;;1.95;;
48550;SDS011;34397;51.176;6.738;2024-02-15T05:37:56;6.50;;;2.00;;
48550;SDS011;34397;51.176;6.738;2024-02-15T05:40:28;2.85;;;1.63;;
48550;SDS011;34397;51.176;6.738;2024-02-15T05:43:01;3.35;;;1.98;;
48550;SDS011;34397;51.176;6.738;2024-02-15T05:45:35;3.70;;;2.25;;
48550;SDS011;34397;51.176;6.738;2024-02-15T05:48:09;5.32;;;2.25;;
48550;SDS011;34397;51.176;6.738;2024-02-15T05:50:42;10.52;;;2.47;;
48550;SDS011;34397;51.176;6.738;2024-02-15T05:53:14;5.25;;;2.10;;
48550;SDS011;34397;51.176;6.738;2024-02-15T05:55:46;5.22;;;2.13;;
48550;SDS011;34397;51.176;6.738;2024-02-15T05:58:19;4.93;;;2.25;;
48550;SDS011;34397;51.176;6.738;2024-02-15T06:00:52;7.15;;;2.20;;
48550;SDS011;34397;51.176;6.738;2024-02-15T06:03:25;4.72;;;2.28;;
48550;SDS011;34397;51.176;6.738;2024-02-15T06:05:56;5.28;;;1.92;;
48550;SDS011;34397;51.176;6.738;2024-02-15T06:08:29;4.88;;;1.90;;
48550;SDS011;34397;51.176;6.738;2024-02-15T06:11:01;4.75;;;2.03;;
48550;SDS011;34397;51.176;6.738;2024-02-15T06:13:35;5.53;;;2.10;;
48550;SDS011;34397;51.176;6.738;2024-02-15T06:16:08;3.45;;;1.80;;
48550;SDS011;34397;51.176;6.738;2024-02-15T06:18:40;6.50;;;2.22;;
48550;SDS011;34397;51.176;6.738;2024-02-15T06:21:11;5.63;;;2.28;;
48550;SDS011;34397;51.176;6.738;2024-02-15T06:23:43;4.55;;;1.98;;
48550;SDS011;34397;51.176;6.738;2024-02-15T06:26:15;4.85;;;1.85;;
48550;SDS011;34397;51.176;6.738;2024-02-15T06:28:47;5.20;;;2.05;;
48550;SDS011;34397;51.176;6.738;2024-02-15T06:31:38;5.50;;;2.20;;
48550;SDS011;34397;51.176;6.738;2024-02-15T06:34:27;4.72;;;1.85;;
48550;SDS011;34397;51.176;6.738;2024-02-15T06:40:24;6.65;;;2.67;;
48550;SDS011;34397;51.176;6.738;2024-02-15T06:42:56;6.25;;;2.67;;
48550;SDS011;34397;51.176;6.738;2024-02-15T06:45:28;6.43;;;2.53;;
48550;SDS011;34397;51.176;6.738;2024-02-15T06:48:03;3.97;;;2.22;;
48550;SDS011;34397;51.176;6.738;2024-02-15T06:50:37;4.63;;;2.30;;
48550;SDS011;34397;51.176;6.738;2024-02-15T06:53:09;6.55;;;2.50;;
48550;SDS011;34397;51.176;6.738;2024-02-15T06:55:41;4.97;;;2.22;;
48550;SDS011;34397;51.176;6.738;2024-02-15T06:58:13;5.38;;;2.45;;
48550;SDS011;34397;51.176;6.738;2024-02-15T07:00:47;6.32;;;2.35;;
48550;SDS011;34397;51.176;6.738;2024-02-15T07:03:21;6.85;;;2.47;;
48550;SDS011;34397;51.176;6.738;2024-02-15T07:05:53;6.88;;;2.30;;
48550;SDS011;34397;51.176;6.738;2024-02-15T07:08:26;5.60;;;2.50;;
48550;SDS011;34397;51.176;6.738;2024-02-15T07:10:57;4.65;;;1.83;;
48550;SDS011;34397;51.176;6.738;2024-02-15T07:13:29;5.68;;;2.13;;
48550;SDS011;34397;51.176;6.738;2024-02-15T07:16:02;7.03;;;2.28;;
48550;SDS011;34397;51.176;6.738;2024-02-15T07:18:39;6.50;;;2.40;;
48550;SDS011;34397;51.176;6.738;2024-02-15T07:21:11;6.85;;;2.17;;
48550;SDS011;34397;51.176;6.738;2024-02-15T07:23:44;6.13;;;2.30;;
48550;SDS011;34397;51.176;6.738;2024-02-15T07:26:16;5.22;;;1.88;;
48550;SDS011;34397;51.176;6.738;2024-02-15T07:28:50;5.57;;;1.98;;
48550;SDS011;34397;51.176;6.738;2024-02-15T07:31:27;5.43;;;2.42;;
48550;SDS011;34397;51.176;6.738;2024-02-15T07:34:01;5.28;;;2.30;;
48550;SDS011;34397;51.176;6.738;2024-02-15T07:36:35;6.40;;;2.25;;
48550;SDS011;34397;51.176;6.738;2024-02-15T07:39:06;5.13;;;2.20;;
48550;SDS011;34397;51.176;6.738;2024-02-15T07:41:42;9.13;;;2.30;;
48550;SDS011;34397;51.176;6.738;2024-02-15T07:46:47;7.28;;;2.10;;
48550;SDS011;34397;51.176;6.738;2024-02-15T07:49:21;11.05;;;3.15;;
48550;SDS011;34397;51.176;6.738;2024-02-15T07:51:54;4.45;;;2.33;;
48550;SDS011;34397;51.176;6.738;2024-02-15T07:54:26;6.30;;;1.90;;
48550;SDS011;34397;51.176;6.738;2024-02-15T07:56:59;7.20;;;2.47;;
48550;SDS011;34397;51.176;6.738;2024-02-15T07:59:31;7.97;;;2.13;;
48550;SDS011;34397;51.176;6.738;2024-02-15T08:02:03;9.35;;;2.70;;
48550;SDS011;34397;51.176;6.738;2024-02-15T08:04:36;90.80;;;5.03;;
48550;SDS011;34397;51.176;6.738;2024-02-15T08:07:10;7.88;;;2.30;;
48550;SDS011;34397;51.176;6.738;2024-02-15T08:09:42;5.53;;;2.08;;
48550;SDS011;34397;51.176;6.738;2024-02-15T08:14:46;5.68;;;2.00;;
48550;SDS011;34397;51.176;6.738;2024-02-15T08:17:18;4.53;;;1.73;;
48550;SDS011;34397;51.176;6.738;2024-02-15T08:19:51;7.90;;;2.53;;
48550;SDS011;34397;51.176;6.738;2024-02-15T08:22:23;6.55;;;2.28;;
48550;SDS011;34397;51.176;6.738;2024-02-15T08:24:55;6.10;;;2.22;;
48550;SDS011;34397;51.176;6.738;2024-02-15T08:27:27;11.88;;;2.88;;
48550;SDS011;34397;51.176;6.738;2024-02-15T08:30:02;8.73;;;2.90;;
48550;SDS011;34397;51.176;6.738;2024-02-15T08:32:38;7.00;;;2.70;;
48550;SDS011;34397;51.176;6.738;2024-02-15T08:35:13;8.88;;;2.92;;
48550;SDS011;34397;51.176;6.738;2024-02-15T08:37:45;6.80;;;2.70;;
48550;SDS011;34397;51.176;6.738;2024-02-15T08:40:18;6.60;;;3.10;;
48550;SDS011;34397;51.176;6.738;2024-02-15T08:42:54;8.40;;;3.70;;
48550;SDS011;34397;51.176;6.738;2024-02-15T08:45:26;8.43;;;3.42;;
48550;SDS011;34397;51.176;6.738;2024-02-15T08:47:58;9.40;;;3.50;;
48550;SDS011;34397;51.176;6.738;2024-02-15T08:50:31;7.15;;;3.20;;
48550;SDS011;34397;51.176;6.738;2024-02-15T08:53:03;9.63;;;3.50;;
48550;SDS011;34397;51.176;6.738;2024-02-15T08:58:07;7.72;;;3.58;;
48550;SDS011;34397;51.176;6.738;2024-02-15T09:00:40;10.43;;;3.28;;
48550;SDS011;34397;51.176;6.738;2024-02-15T09:03:14;6.15;;;3.20;;
48550;SDS011;34397;51.176;6.738;2024-02-15T09:05:50;8.25;;;4.15;;
48550;SDS011;34397;51.176;6.738;2024-02-15T09:08:22;7.38;;;3.20;;
48550;SDS011;34397;51.176;6.738;2024-02-15T09:10:54;7.95;;;3.50;;
48550;SDS011;34397;51.176;6.738;2024-02-15T09:13:25;7.50;;;3.05;;
48550;SDS011;34397;51.176;6.738;2024-02-15T09:15:57;4.18;;;2.50;;
48550;SDS011;34397;51.176;6.738;2024-02-15T09:18:29;6.68;;;2.38;;
48550;SDS011;34397;51.176;6.738;2024-02-15T09:21:05;7.85;;;2.67;;
48550;SDS011;34397;51.176;6.738;2024-02-15T09:23:37;7.53;;;2.95;;
48550;SDS011;34397;51.176;6.738;2024-02-15T09:26:09;4.65;;;2.10;;
48550;SDS011;34397;51.176;6.738;2024-02-15T09:28:41;7.97;;;2.17;;
48550;SDS011;34397;51.176;6.738;2024-02-15T09:31:13;4.03;;;2.17;;
48550;SDS011;34397;51.176;6.738;2024-02-15T09:33:45;5.40;;;2.15;;
48550;SDS011;34397;51.176;6.738;2024-02-15T09:36:18;4.43;;;2.08;;
48550;SDS011;34397;51.176;6.738;2024-02-15T09:38:50;6.55;;;2.00;;
48550;SDS011;34397;51.176;6.738;2024-02-15T09:41:22;6.75;;;2.20;;
48550;SDS011;34397;51.176;6.738;2024-02-15T09:43:54;6.88;;;2.25;;
48550;SDS011;34397;51.176;6.738;2024-02-15T09:46:26;4.78;;;2.15;;
48550;SDS011;34397;51.176;6.738;2024-02-15T09:48:58;4.28;;;2.10;;
48550;SDS011;34397;51.176;6.738;2024-02-15T09:51:31;6.78;;;2.53;;
48550;SDS011;34397;51.176;6.738;2024-02-15T09:54:04;6.55;;;1.95;;
48550;SDS011;34397;51.176;6.738;2024-02-15T09:56:39;7.22;;;2.08;;
48550;SDS011;34397;51.176;6.738;2024-02-15T09:59:12;4.28;;;2.45;;
48550;SDS011;34397;51.176;6.738;2024-02-15T10:01:44;4.32;;;1.83;;
48550;SDS011;34397;51.176;6.738;2024-02-15T10:04:18;5.05;;;2.42;;
48550;SDS011;34397;51.176;6.738;2024-02-15T10:06:51;6.45;;;2.63;;
48550;SDS011;34397;51.176;6.738;2024-02-15T10:09:23;5.97;;;2.17;;
48550;SDS011;34397;51.176;6.738;2024-02-15T10:11:58;6.00;;;2.30;;
48550;SDS011;34397;51.176;6.738;2024-02-15T10:14:31;6.47;;;2.10;;
48550;SDS011;34397;51.176;6.738;2024-02-15T10:19:41;5.95;;;2.15;;
48550;SDS011;34397;51.176;6.738;2024-02-15T10:22:15;6.63;;;2.33;;
48550;SDS011;34397;51.176;6.738;2024-02-15T10:24:47;4.40;;;2.00;;
48550;SDS011;34397;51.176;6.738;2024-02-15T10:27:19;4.68;;;2.10;;
48550;SDS011;34397;51.176;6.738;2024-02-15T10:29:55;7.88;;;2.90;;
48550;SDS011;34397;51.176;6.738;2024-02-15T10:32:46;5.63;;;2.20;;
48550;SDS011;34397;51.176;6.738;2024-02-15T10:35:19;7.22;;;2.30;;
48550;SDS011;34397;51.176;6.738;2024-02-15T10:37:54;8.20;;;1.92;;
48550;SDS011;34397;51.176;6.738;2024-02-15T10:40:37;4.03;;;2.13;;
48550;SDS011;34397;51.176;6.738;2024-02-15T10:43:12;4.95;;;2.05;;
48550;SDS011;34397;51.176;6.738;2024-02-15T10:45:46;5.38;;;1.92;;
48550;SDS011;34397;51.176;6.738;2024-02-15T10:48:19;4.60;;;2.00;;
48550;SDS011;34397;51.176;6.738;2024-02-15T10:50:51;4.57;;;2.00;;
48550;SDS011;34397;51.176;6.738;2024-02-15T10:53:30;4.38;;;1.52;;
48550;SDS011;34397;51.176;6.738;2024-02-15T10:56:05;4.85;;;1.70;;
48550;SDS011;34397;51.176;6.738;2024-02-15T10:58:47;6.25;;;2.15;;
48550;SDS011;34397;51.176;6.738;2024-02-15T11:01:22;5.00;;;1.70;;
48550;SDS011;34397;51.176;6.738;2024-02-15T11:03:57;5.88;;;1.55;;
48550;SDS011;34397;51.176;6.738;2024-02-15T11:06:32;4.78;;;1.60;;
48550;SDS011;34397;51.176;6.738;2024-02-15T11:09:08;3.35;;;1.50;;
48550;SDS011;34397;51.176;6.738;2024-02-15T11:11:41;6.40;;;1.65;;
48550;SDS011;34397;51.176;6.738;2024-02-15T11:14:25;4.82;;;1.45;;
48550;SDS011;34397;51.176;6.738;2024-02-15T11:16:59;7.25;;;1.40;;
48550;SDS011;34397;51.176;6.738;2024-02-15T11:19:43;5.65;;;1.45;;
48550;SDS011;34397;51.176;6.738;2024-02-15T11:22:18;10.18;;;1.98;;
48550;SDS011;34397;51.176;6.738;2024-02-15T11:24:54;5.10;;;1.40;;
48550;SDS011;34397;51.176;6.738;2024-02-15T11:27:27;3.35;;;1.45;;
48550;SDS011;34397;51.176;6.738;2024-02-15T11:30:00;6.25;;;1.10;;
48550;SDS011;34397;51.176;6.738;2024-02-15T11:32:35;3.80;;;1.23;;
48550;SDS011;34397;51.176;6.738;2024-02-15T11:35:09;5.60;;;1.70;;
48550;SDS011;34397;51.176;6.738;2024-02-15T11:37:50;3.20;;;1.50;;
48550;SDS011;34397;51.176;6.738;2024-02-15T11:43:45;2.92;;;1.15;;
48550;SDS011;34397;51.176;6.738;2024-02-15T11:46:26;3.33;;;1.35;;
48550;SDS011;34397;51.176;6.738;2024-02-15T11:49:02;4.38;;;1.92;;
48550;SDS011;34397;51.176;6.738;2024-02-15T11:51:35;4.68;;;1.23;;
48550;SDS011;34397;51.176;6.738;2024-02-15T11:54:12;3.95;;;1.35;;
48550;SDS011;34397;51.176;6.738;2024-02-15T11:56:55;3.45;;;1.10;;
48550;SDS011;34397;51.176;6.738;2024-02-15T11:59:40;3.58;;;1.27;;
48550;SDS011;34397;51.176;6.738;2024-02-15T12:02:45;4.18;;;1.65;;
48550;SDS011;34397;51.176;6.738;2024-02-15T12:05:34;5.32;;;1.20;;
48550;SDS011;34397;51.176;6.738;2024-02-15T12:08:23;4.47;;;1.40;;
48550;SDS011;34397;51.176;6.738;2024-02-15T12:11:13;3.58;;;1.40;;
48550;SDS011;34397;51.176;6.738;2024-02-15T12:14:04;3.67;;;1.30;;
48550;SDS011;34397;51.176;6.738;2024-02-15T12:17:00;3.95;;;1.40;;
48550;SDS011;34397;51.176;6.738;2024-02-15T12:19:50;4.65;;;1.20;;
48550;SDS011;34397;51.176;6.738;2024-02-15T12:22:26;3.92;;;1.17;;
48550;SDS011;34397;51.176;6.738;2024-02-15T12:25:01;5.20;;;1.17;;
48550;SDS011;34397;51.176;6.738;2024-02-15T12:27:41;4.38;;;1.45;;
48550;SDS011;34397;51.176;6.738;2024-02-15T12:30:16;3.85;;;1.20;;
48550;SDS011;34397;51.176;6.738;2024-02-15T12:32:50;2.53;;;0.98;;
48550;SDS011;34397;51.176;6.738;2024-02-15T12:35:23;3.45;;;1.15;;
48550;SDS011;34397;51.176;6.738;2024-02-15T12:38:01;3.40;;;1.27;;
48550;SDS011;34397;51.176;6.738;2024-02-15T12:40:35;2.53;;;1.10;;
48550;SDS011;34397;51.176;6.738;2024-02-15T12:43:10;3.22;;;1.40;;
48550;SDS011;34397;51.176;6.738;2024-02-15T12:45:43;6.45;;;1.50;;
48550;SDS011;34397;51.176;6.738;2024-02-15T12:48:15;3.20;;;1.13;;
48550;SDS011;34397;51.176;6.738;2024-02-15T12:50:49;1.92;;;1.23;;
48550;SDS011;34397;51.176;6.738;2024-02-15T12:53:21;3.15;;;1.17;;
48550;SDS011;34397;51.176;6.738;2024-02-15T12:55:54;3.53;;;1.50;;
48550;SDS011;34397;51.176;6.738;2024-02-15T12:58:27;3.10;;;1.38;;
48550;SDS011;34397;51.176;6.738;2024-02-15T13:01:00;2.47;;;1.17;;
48550;SDS011;34397;51.176;6.738;2024-02-15T13:03:34;7.28;;;2.38;;
48550;SDS011;34397;51.176;6.738;2024-02-15T13:06:06;2.85;;;1.13;;
48550;SDS011;34397;51.176;6.738;2024-02-15T13:08:38;4.25;;;1.50;;
48550;SDS011;34397;51.176;6.738;2024-02-15T13:11:10;7.55;;;1.85;;
48550;SDS011;34397;51.176;6.738;2024-02-15T13:13:45;4.32;;;1.30;;
48550;SDS011;34397;51.176;6.738;2024-02-15T13:16:18;5.30;;;1.40;;
48550;SDS011;34397;51.176;6.738;2024-02-15T13:18:50;3.35;;;1.30;;
48550;SDS011;34397;51.176;6.738;2024-02-15T13:21:22;3.53;;;1.20;;
48550;SDS011;34397;51.176;6.738;2024-02-15T13:23:54;4.07;;;1.30;;
48550;SDS011;34397;51.176;6.738;2024-02-15T13:26:26;3.63;;;1.63;;
48550;SDS011;34397;51.176;6.738;2024-02-15T13:28:58;6.68;;;1.75;;
48550;SDS011;34397;51.176;6.738;2024-02-15T13:31:31;4.07;;;1.63;;
48550;SDS011;34397;51.176;6.738;2024-02-15T13:34:04;6.55;;;1.50;;
48550;SDS011;34397;51.176;6.738;2024-02-15T13:36:36;4.13;;;1.50;;
48550;SDS011;34397;51.176;6.738;2024-02-15T13:39:08;3.83;;;1.50;;
48550;SDS011;34397;51.176;6.738;2024-02-15T13:41:40;6.55;;;1.20;;
48550;SDS011;34397;51.176;6.738;2024-02-15T13:44:12;8.05;;;1.73;;
48550;SDS011;34397;51.176;6.738;2024-02-15T13:46:46;3.72;;;1.40;;
48550;SDS011;34397;51.176;6.738;2024-02-15T13:49:20;4.93;;;2.03;;
48550;SDS011;34397;51.176;6.738;2024-02-15T13:51:51;5.63;;;1.38;;
48550;SDS011;34397;51.176;6.738;2024-02-15T13:54:23;8.00;;;1.55;;
48550;SDS011;34397;51.176;6.738;2024-02-15T13:56:55;6.10;;;1.60;;
48550;SDS011;34397;51.176;6.738;2024-02-15T13:59:27;3.20;;;1.38;;
48550;SDS011;34397;51.176;6.738;2024-02-15T14:02:01;6.43;;;1.40;;
48550;SDS011;34397;51.176;6.738;2024-02-15T14:04:34;4.25;;;1.52;;
48550;SDS011;34397;51.176;6.738;2024-02-15T14:07:06;3.42;;;1.38;;
48550;SDS011;34397;51.176;6.738;2024-02-15T14:09:38;6.90;;;1.40;;
48550;SDS011;34397;51.176;6.738;2024-02-15T14:12:11;6.70;;;1.90;;
48550;SDS011;34397;51.176;6.738;2024-02-15T14:14:43;6.40;;;1.60;;
48550;SDS011;34397;51.176;6.738;2024-02-15T14:17:17;3.05;;;1.20;;
48550;SDS011;34397;51.176;6.738;2024-02-15T14:19:49;3.08;;;1.17;;
48550;SDS011;34397;51.176;6.738;2024-02-15T14:22:21;3.08;;;1.17;;
48550;SDS011;34397;51.176;6.738;2024-02-15T14:24:53;2.75;;;1.30;;
48550;SDS011;34397;51.176;6.738;2024-02-15T14:27:26;5.50;;;1.10;;
48550;SDS011;34397;51.176;6.738;2024-02-15T14:29:58;3.25;;;1.05;;
48550;SDS011;34397;51.176;6.738;2024-02-15T14:32:49;3.20;;;0.95;;
48550;SDS011;34397;51.176;6.738;2024-02-15T14:35:35;2.97;;;1.33;;
48550;SDS011;34397;51.176;6.738;2024-02-15T14:38:09;2.03;;;0.95;;
48550;SDS011;34397;51.176;6.738;2024-02-15T14:40:44;2.78;;;1.20;;
48550;SDS011;34397;51.176;6.738;2024-02-15T14:43:20;3.67;;;1.00;;
48550;SDS011;34397;51.176;6.738;2024-02-15T14:45:53;3.38;;;1.08;;
48550;SDS011;34397;51.176;6.738;2024-02-15T14:48:27;3.22;;;1.00;;
48550;SDS011;34397;51.176;6.738;2024-02-15T14:51:00;2.63;;;1.02;;
48550;SDS011;34397;51.176;6.738;2024-02-15T14:56:04;2.80;;;1.10;;
48550;SDS011;34397;51.176;6.738;2024-02-15T14:58:37;4.53;;;1.15;;
48550;SDS011;34397;51.176;6.738;2024-02-15T15:01:10;3.38;;;1.27;;
48550;SDS011;34397;51.176;6.738;2024-02-15T15:03:45;4.32;;;1.45;;
48550;SDS011;34397;51.176;6.738;2024-02-15T15:06:25;3.05;;;1.65;;
48550;SDS011;34397;51.176;6.738;2024-02-15T15:09:15;4.90;;;1.90;;
48550;SDS011;34397;51.176;6.738;2024-02-15T15:12:05;5.07;;;2.05;;
48550;SDS011;34397;51.176;6.738;2024-02-15T15:14:56;4.95;;;1.67;;
48550;SDS011;34397;51.176;6.738;2024-02-15T15:17:30;2.92;;;1.83;;
48550;SDS011;34397;51.176;6.738;2024-02-15T15:20:03;4.18;;;1.67;;
48550;SDS011;34397;51.176;6.738;2024-02-15T15:22:38;4.10;;;1.52;;
48550;SDS011;34397;51.176;6.738;2024-02-15T15:25:10;4.22;;;1.58;;
48550;SDS011;34397;51.176;6.738;2024-02-15T15:27:43;4.13;;;1.63;;
48550;SDS011;34397;51.176;6.738;2024-02-15T15:30:14;4.15;;;1.92;;
48550;SDS011;34397;51.176;6.738;2024-02-15T15:32:48;5.38;;;1.35;;
48550;SDS011;34397;51.176;6.738;2024-02-15T15:35:22;3.15;;;1.40;;
48550;SDS011;34397;51.176;6.738;2024-02-15T15:37:56;5.15;;;1.98;;
48550;SDS011;34397;51.176;6.738;2024-02-15T15:40:29;4.90;;;1.40;;
48550;SDS011;34397;51.176;6.738;2024-02-15T15:43:02;4.07;;;1.60;;
48550;SDS011;34397;51.176;6.738;2024-02-15T15:45:35;3.47;;;1.52;;
48550;SDS011;34397;51.176;6.738;2024-02-15T15:48:07;4.40;;;1.17;;
48550;SDS011;34397;51.176;6.738;2024-02-15T15:50:40;4.97;;;1.35;;
48550;SDS011;34397;51.176;6.738;2024-02-15T15:53:13;3.83;;;1.50;;
48550;SDS011;34397;51.176;6.738;2024-02-15T15:55:44;5.40;;;1.83;;
48550;SDS011;34397;51.176;6.738;2024-02-15T15:58:16;3.80;;;1.60;;